Time;durP1;ratioP1;P1;durP2;ratioP2;P2;SDS_P1;SDS_P2;PMS_P1;PMS_P2;Temp;Humidity;BMP_temperature;BMP_pressure;BME280_temperature;BME280_humidity;BME280_pressure;Samples;Min_cycle;Max_cycle;Signal;HPM_P1;HPM_P2
2023/12/13 00:00:09;;;;;;;4.00;0.88;;;;;;;8.11;100.00;97461.19;5063817;28;20017;-76
2023/12/13 00:02:35;;;;;;;3.03;1.10;;;;;;;8.19;100.00;97470.88;5046337;28;20029;-76
2023/12/13 00:05:00;;;;;;;1.92;0.95;;;;;;;8.16;100.00;97465.09;5033166;28;20020;-75
2023/12/13 00:07:25;;;;;;;6.47;0.93;;;;;;;8.09;100.00;97451.69;5065532;28;20025;-75
2023/12/13 00:09:51;;;;;;;2.97;0.90;;;;;;;8.04;100.00;97443.44;5065483;28;20102;-75
2023/12/13 00:12:17;;;;;;;4.43;0.50;;;;;;;8.02;100.00;97448.25;5065433;28;20032;-75
2023/12/13 00:14:42;;;;;;;3.33;0.80;;;;;;;8.07;100.00;97440.34;5065195;28;20020;-75
2023/12/13 00:17:10;;;;;;;5.57;0.90;;;;;;;8.15;100.00;97447.28;5065461;28;20063;-75
2023/12/13 00:19:36;;;;;;;4.30;1.17;;;;;;;8.05;100.00;97437.84;5044249;28;20023;-75
2023/12/13 00:22:01;;;;;;;3.88;1.33;;;;;;;8.01;100.00;97435.81;5047110;28;20217;-75
2023/12/13 00:24:26;;;;;;;4.10;1.50;;;;;;;7.95;100.00;97426.75;5065083;28;20031;-76
2023/12/13 00:26:51;;;;;;;3.42;1.25;;;;;;;7.90;100.00;97431.97;5061101;28;20033;-75
2023/12/13 00:29:17;;;;;;;3.97;1.63;;;;;;;7.81;100.00;97426.03;5048310;28;20316;-75
2023/12/13 00:31:42;;;;;;;5.05;1.40;;;;;;;7.72;100.00;97413.88;5045878;28;20056;-74
2023/12/13 00:34:07;;;;;;;4.88;1.15;;;;;;;7.68;100.00;97426.97;5065108;28;20025;-76
2023/12/13 00:36:33;;;;;;;3.20;0.95;;;;;;;7.62;100.00;97418.91;5064783;28;20020;-76
2023/12/13 00:38:58;;;;;;;1.42;0.82;;;;;;;7.57;100.00;97405.28;5057117;28;20249;-76
2023/12/13 00:41:24;;;;;;;4.68;1.05;;;;;;;7.55;100.00;97412.78;5050243;28;20336;-76
2023/12/13 00:43:49;;;;;;;8.00;1.20;;;;;;;7.52;100.00;97421.28;5065017;28;20024;-75
2023/12/13 00:46:22;;;;;;;8.23;1.00;;;;;;;7.53;100.00;97412.16;5064971;28;20094;-76
2023/12/13 00:48:48;;;;;;;6.47;1.90;;;;;;;7.40;100.00;97415.78;5047304;28;20031;-76
2023/12/13 00:51:21;;;;;;;3.42;0.90;;;;;;;7.39;100.00;97406.06;5064919;28;20020;-75
2023/12/13 00:53:47;;;;;;;4.57;0.70;;;;;;;7.36;100.00;97422.63;5053778;28;20067;-75
2023/12/13 00:56:13;;;;;;;4.95;1.15;;;;;;;7.29;100.00;97411.91;5046821;28;20029;-75
2023/12/13 00:58:38;;;;;;;5.90;0.85;;;;;;;7.25;100.00;97418.75;5064715;28;20025;-75
2023/12/13 01:01:05;;;;;;;3.85;1.05;;;;;;;7.14;100.00;97398.75;5037808;28;20036;-75
2023/12/13 01:03:30;;;;;;;5.80;1.25;;;;;;;7.19;100.00;97416.94;5059873;28;20043;-75
2023/12/13 01:05:55;;;;;;;4.40;0.82;;;;;;;7.15;100.00;97421.09;5026876;28;20025;-75
2023/12/13 01:08:20;;;;;;;4.50;1.10;;;;;;;7.14;100.00;97411.38;5060672;28;20214;-75
2023/12/13 01:10:46;;;;;;;3.38;1.25;;;;;;;7.14;100.00;97412.19;5063288;28;20076;-75
2023/12/13 01:13:11;;;;;;;3.13;0.93;;;;;;;7.12;100.00;97416.16;5064490;28;20021;-75
2023/12/13 01:15:37;;;;;;;2.35;1.10;;;;;;;7.08;100.00;97413.06;5064092;28;20039;-75
2023/12/13 01:18:03;;;;;;;4.85;1.10;;;;;;;7.05;100.00;97421.56;5059048;28;20028;-75
2023/12/13 01:20:28;;;;;;;5.03;1.05;;;;;;;6.97;100.00;97411.06;5052467;28;20032;-75
2023/12/13 01:22:53;;;;;;;10.38;1.23;;;;;;;6.88;100.00;97404.28;5043221;28;20032;-75
2023/12/13 01:25:18;;;;;;;5.20;1.17;;;;;;;7.04;100.00;97425.28;5055257;28;20025;-75
2023/12/13 01:27:44;;;;;;;2.95;0.93;;;;;;;7.14;100.00;97431.03;5064127;28;20055;-75
2023/12/13 01:30:09;;;;;;;3.33;1.33;;;;;;;7.13;100.00;97413.25;5063377;28;20029;-75
2023/12/13 01:32:35;;;;;;;4.72;1.80;;;;;;;7.13;100.00;97415.94;5063718;28;20025;-75
2023/12/13 01:35:00;;;;;;;3.47;1.55;;;;;;;7.13;100.00;97415.94;5063688;28;20083;-75
2023/12/13 01:37:26;;;;;;;7.38;1.48;;;;;;;7.12;100.00;97414.28;5064009;28;20205;-75
2023/12/13 01:39:56;;;;;;;2.85;0.90;;;;;;;7.16;100.00;97425.44;5064032;28;20047;-75
2023/12/13 01:42:21;;;;;;;5.63;1.00;;;;;;;7.11;100.00;97415.31;5058132;28;20195;-75
2023/12/13 01:44:46;;;;;;;3.55;0.95;;;;;;;7.13;100.00;97421.31;5055906;28;20088;-75
2023/12/13 01:47:12;;;;;;;1.58;0.80;;;;;;;7.23;100.00;97421.69;5062205;28;20023;-75
2023/12/13 01:49:37;;;;;;;3.65;0.90;;;;;;;7.18;100.00;97416.13;5046911;28;20017;-76
2023/12/13 01:52:03;;;;;;;2.40;1.02;;;;;;;7.12;100.00;97411.59;5052099;28;20089;-75
2023/12/13 01:54:30;;;;;;;2.45;1.10;;;;;;;7.15;100.00;97407.63;5046032;28;20029;-75
2023/12/13 01:56:56;;;;;;;3.65;1.30;;;;;;;7.05;100.00;97404.59;5051836;28;20092;-75
2023/12/13 01:59:22;;;;;;;10.77;0.90;;;;;;;7.08;100.00;97405.00;5044536;28;20024;-75
2023/12/13 02:01:48;;;;;;;2.65;0.90;;;;;;;7.17;100.00;97409.06;5059892;28;20314;-76
2023/12/13 02:04:16;;;;;;;2.80;1.02;;;;;;;7.24;100.00;97414.44;5062746;28;20021;-76
2023/12/13 02:06:42;;;;;;;3.75;1.00;;;;;;;7.27;100.00;97411.31;5063416;28;20028;-75
2023/12/13 02:09:08;;;;;;;4.35;1.33;;;;;;;7.31;100.00;97412.53;5048077;28;20103;-75
2023/12/13 02:11:34;;;;;;;5.82;1.10;;;;;;;7.41;100.00;97406.66;5039079;28;20067;-76
2023/12/13 02:14:01;;;;;;;6.30;1.40;;;;;;;7.41;100.00;97414.72;5043999;28;20108;-75
2023/12/13 02:16:26;;;;;;;2.30;1.90;;;;;;;7.39;100.00;97417.66;5049891;28;20029;-75
2023/12/13 02:18:52;;;;;;;2.95;1.42;;;;;;;7.45;100.00;97418.63;5030082;28;20049;-76
2023/12/13 02:21:17;;;;;;;1.10;0.75;;;;;;;7.55;100.00;97437.81;5070607;28;20033;-76
2023/12/13 02:23:43;;;;;;;4.82;0.98;;;;;;;7.57;100.00;97422.28;5074488;28;20048;-76
2023/12/13 02:26:11;;;;;;;1.70;0.80;;;;;;;7.51;100.00;97409.69;5076983;28;20084;-76
2023/12/13 02:28:36;;;;;;;2.55;1.00;;;;;;;7.48;100.00;97420.88;5075300;28;20039;-76
2023/12/13 02:31:03;;;;;;;4.85;0.80;;;;;;;7.47;100.00;97414.69;5067636;28;20061;-76
2023/12/13 02:33:29;;;;;;;5.78;0.85;;;;;;;7.44;100.00;97420.50;5053924;28;20033;-76
2023/12/13 02:36:00;;;;;;;2.58;0.77;;;;;;;7.43;100.00;97418.03;5063259;28;20330;-76
2023/12/13 02:38:25;;;;;;;2.70;0.80;;;;;;;7.44;100.00;97425.03;5060283;28;20024;-76
2023/12/13 02:40:52;;;;;;;10.88;0.95;;;;;;;7.42;100.00;97421.78;5064682;28;20034;-76
2023/12/13 02:43:18;;;;;;;2.10;0.90;;;;;;;7.50;100.00;97424.19;5060209;28;20092;-76
2023/12/13 02:45:43;;;;;;;3.47;1.15;;;;;;;7.51;100.00;97412.38;5071210;28;20025;-76
2023/12/13 02:48:09;;;;;;;5.78;0.98;;;;;;;7.55;100.00;97416.28;5067566;28;20021;-76
2023/12/13 02:50:36;;;;;;;3.35;1.10;;;;;;;7.57;100.00;97416.06;5046093;28;20025;-76
2023/12/13 02:53:03;;;;;;;2.67;0.73;;;;;;;7.56;100.00;97407.16;5050604;28;20025;-76
2023/12/13 02:55:28;;;;;;;5.22;1.00;;;;;;;7.57;100.00;97403.44;5047704;28;20029;-76
2023/12/13 02:57:54;;;;;;;7.15;1.17;;;;;;;7.54;100.00;97390.41;5063130;28;20309;-76
2023/12/13 03:00:19;;;;;;;6.35;1.50;;;;;;;7.58;100.00;97404.28;5038355;28;20028;-76
2023/12/13 03:02:44;;;;;;;11.20;2.33;;;;;;;7.50;100.00;97405.34;5048883;28;20027;-76
2023/12/13 03:05:10;;;;;;;3.90;1.30;;;;;;;7.51;100.00;97395.41;5042978;28;20153;-76
2023/12/13 03:07:39;;;;;;;6.55;2.13;;;;;;;7.48;100.00;97399.38;5063675;28;20070;-76
2023/12/13 03:10:04;;;;;;;3.92;1.05;;;;;;;7.45;100.00;97389.03;5066395;28;20340;-76
2023/12/13 03:12:30;;;;;;;3.95;0.90;;;;;;;7.39;100.00;97389.94;5060997;28;20032;-76
2023/12/13 03:14:55;;;;;;;2.88;0.77;;;;;;;7.43;100.00;97378.47;5049425;28;21424;-75
2023/12/13 03:17:21;;;;;;;1.70;0.60;;;;;;;7.52;100.00;97381.75;5050738;28;20033;-76
2023/12/13 03:19:46;;;;;;;1.50;0.57;;;;;;;7.64;100.00;97388.06;5046336;28;20026;-76
2023/12/13 03:22:11;;;;;;;3.33;0.60;;;;;;;7.59;100.00;97379.81;5033368;28;20052;-75
2023/12/13 03:24:37;;;;;;;5.72;0.88;;;;;;;7.56;100.00;97384.81;5040803;28;20028;-76
2023/12/13 03:27:02;;;;;;;5.88;1.17;;;;;;;7.48;100.00;97380.53;5066156;28;20379;-76
2023/12/13 03:29:28;;;;;;;5.50;1.00;;;;;;;7.31;100.00;97360.56;5064793;28;20044;-75
2023/12/13 03:31:53;;;;;;;1.52;1.00;;;;;;;7.25;100.00;97363.09;5065959;28;20029;-75
2023/12/13 03:34:18;;;;;;;4.45;1.40;;;;;;;7.32;100.00;97370.31;5065806;28;20013;-76
2023/12/13 03:36:43;;;;;;;4.10;1.38;;;;;;;7.28;100.00;97369.06;5034191;28;20029;-76
2023/12/13 03:39:09;;;;;;;6.47;1.60;;;;;;;7.35;100.00;97373.38;5046140;28;20025;-76
2023/12/13 03:41:34;;;;;;;4.82;1.10;;;;;;;7.35;100.00;97373.38;5061706;28;20056;-76
2023/12/13 03:43:59;;;;;;;4.65;1.52;;;;;;;7.40;100.00;97372.72;5065830;28;20017;-76
2023/12/13 03:46:25;;;;;;;4.50;1.58;;;;;;;7.41;100.00;97371.66;5047864;28;20024;-76
2023/12/13 03:48:50;;;;;;;2.08;1.00;;;;;;;7.43;100.00;97359.66;5047924;28;20321;-76
2023/12/13 03:51:15;;;;;;;3.85;0.90;;;;;;;7.38;100.00;97355.97;5047465;28;20024;-76
2023/12/13 03:53:42;;;;;;;3.13;0.98;;;;;;;7.40;100.00;97353.88;5060785;28;20021;-76
2023/12/13 03:56:09;;;;;;;5.50;0.93;;;;;;;7.52;100.00;97359.38;5065199;28;20048;-76
2023/12/13 03:58:34;;;;;;;3.78;0.98;;;;;;;7.51;100.00;97350.47;5047639;28;20021;-76
2023/12/13 04:01:00;;;;;;;4.07;0.90;;;;;;;7.50;100.00;97342.66;5061571;28;20530;-76
2023/12/13 04:03:25;;;;;;;6.93;1.20;;;;;;;7.43;100.00;97351.56;5044436;28;20084;-76
2023/12/13 04:05:51;;;;;;;4.25;0.88;;;;;;;7.43;100.00;97359.66;5069699;22;20045;-80
2023/12/13 04:08:16;;;;;;;4.10;0.85;;;;;;;7.27;100.00;97332.47;5070402;28;20119;-81
2023/12/13 04:10:41;;;;;;;2.55;0.90;;;;;;;7.34;100.00;97346.72;5059269;28;20024;-79
2023/12/13 04:13:07;;;;;;;4.30;1.48;;;;;;;7.43;100.00;97345.38;5073910;28;20030;-80
2023/12/13 04:15:32;;;;;;;3.78;1.30;;;;;;;7.32;100.00;97332.63;5063611;28;20029;-83
2023/12/13 04:17:57;;;;;;;4.47;1.80;;;;;;;7.12;100.00;97292.44;5043232;28;20251;-82
2023/12/13 04:20:22;;;;;;;5.10;1.88;;;;;;;7.29;100.00;97306.19;5041836;28;20484;-83
2023/12/13 04:22:49;;;;;;;4.63;1.40;;;;;;;7.38;100.00;97312.91;5069155;28;20021;-84
2023/12/13 04:25:14;;;;;;;3.55;0.93;;;;;;;7.30;100.00;97305.13;5066425;28;20187;-83
2023/12/13 04:27:40;;;;;;;6.78;1.67;;;;;;;7.38;100.00;97323.69;5046190;28;20021;-82
2023/12/13 04:30:06;;;;;;;7.40;1.90;;;;;;;7.12;100.00;97287.88;5066305;28;20021;-86
2023/12/13 04:32:31;;;;;;;4.93;1.60;;;;;;;6.98;100.00;97272.88;5052800;28;20016;-85
2023/12/13 04:34:57;;;;;;;2.60;1.60;;;;;;;7.15;100.00;97310.81;5047455;28;20319;-86
2023/12/13 04:37:23;;;;;;;8.77;1.90;;;;;;;7.03;100.00;97299.94;5040616;28;20067;-86
2023/12/13 04:39:48;;;;;;;4.18;1.75;;;;;;;6.87;100.00;97285.16;5036177;28;20021;-82
2023/12/13 04:42:13;;;;;;;4.55;1.60;;;;;;;6.96;100.00;97302.66;5041987;28;20032;-76
2023/12/13 04:44:39;;;;;;;2.60;1.13;;;;;;;6.96;100.00;97305.38;5047541;28;20397;-77
2023/12/13 04:47:04;;;;;;;4.00;1.10;;;;;;;6.98;100.00;97315.91;5030128;28;20033;-76
2023/12/13 04:49:30;;;;;;;7.70;1.83;;;;;;;7.00;100.00;97308.47;5062845;28;20071;-79
2023/12/13 04:51:55;;;;;;;5.97;1.70;;;;;;;7.01;100.00;97316.28;5062985;28;20032;-79
2023/12/13 04:54:21;;;;;;;4.03;1.65;;;;;;;7.11;100.00;97323.88;5048873;28;20252;-81
2023/12/13 04:56:46;;;;;;;9.65;1.92;;;;;;;7.10;100.00;97316.88;5039522;28;20025;-78
2023/12/13 04:59:11;;;;;;;5.30;2.17;;;;;;;6.96;100.00;97288.41;5047269;28;20017;-79
2023/12/13 05:01:37;;;;;;;7.60;2.22;;;;;;;7.03;100.00;97283.81;5055972;28;20025;-77
2023/12/13 05:04:02;;;;;;;3.75;2.00;;;;;;;7.20;100.00;97308.28;5067648;28;20020;-77
2023/12/13 05:06:27;;;;;;;2.97;1.15;;;;;;;7.10;100.00;97287.28;5065648;28;20081;-77
2023/12/13 05:08:53;;;;;;;4.82;0.88;;;;;;;7.10;100.00;97278.38;5045516;28;20021;-77
2023/12/13 05:11:18;;;;;;;2.50;1.20;;;;;;;7.28;100.00;97307.22;5061959;28;20213;-77
2023/12/13 05:13:44;;;;;;;3.60;1.08;;;;;;;7.22;100.00;97292.78;5044370;28;20025;-78
2023/12/13 05:16:09;;;;;;;5.30;0.93;;;;;;;7.20;100.00;97290.31;5048209;28;20025;-79
2023/12/13 05:18:35;;;;;;;4.30;1.20;;;;;;;7.21;100.00;97297.34;5043771;28;20024;-80
2023/12/13 05:21:01;;;;;;;3.58;1.00;;;;;;;7.14;100.00;97285.78;5048222;28;20060;-76
2023/12/13 05:23:28;;;;;;;2.13;0.80;;;;;;;7.17;100.00;97296.09;5043124;28;20037;-81
2023/12/13 05:25:54;;;;;;;5.70;1.00;;;;;;;7.23;100.00;97295.25;5063413;28;20327;-80
2023/12/13 05:28:19;;;;;;;4.57;1.13;;;;;;;7.21;100.00;97289.25;5036584;28;20025;-80
2023/12/13 05:30:44;;;;;;;6.38;1.30;;;;;;;7.20;100.00;97306.47;5053631;28;20020;-78
2023/12/13 05:33:10;;;;;;;5.45;1.17;;;;;;;7.22;100.00;97293.59;5043655;28;20018;-78
2023/12/13 05:35:35;;;;;;;4.97;1.60;;;;;;;7.05;100.00;97260.22;5041330;28;20095;-78
2023/12/13 05:38:00;;;;;;;6.85;1.60;;;;;;;7.19;100.00;97283.28;5065072;28;20318;-80
2023/12/13 05:40:26;;;;;;;6.25;2.08;;;;;;;7.17;100.00;97274.59;5046734;28;20199;-79
2023/12/13 05:42:51;;;;;;;10.90;1.45;;;;;;;7.18;100.00;97275.44;5037031;28;20021;-80
2023/12/13 05:45:16;;;;;;;4.15;2.00;;;;;;;7.17;100.00;97281.84;5045358;28;20043;-83
2023/12/13 05:47:42;;;;;;;3.35;1.67;;;;;;;7.19;100.00;97277.91;5060171;28;20130;-78
2023/12/13 05:50:07;;;;;;;5.90;1.50;;;;;;;7.25;100.00;97277.00;5040317;28;20321;-78
2023/12/13 05:52:32;;;;;;;7.32;1.50;;;;;;;7.13;100.00;97251.06;5043864;28;20032;-78
2023/12/13 05:54:59;;;;;;;6.25;1.25;;;;;;;7.14;100.00;97264.28;5063769;28;20060;-76
2023/12/13 05:57:25;;;;;;;7.25;1.48;;;;;;;7.08;100.00;97249.03;5062227;28;20036;-77
2023/12/13 05:59:50;;;;;;;9.77;4.88;;;;;;;7.03;100.00;97248.88;5036427;28;20017;-77
2023/12/13 06:02:15;;;;;;;6.40;1.92;;;;;;;7.17;100.00;97260.31;5034766;28;20020;-76
2023/12/13 06:04:42;;;;;;;4.28;1.00;;;;;;;7.09;100.00;97247.16;5061984;28;20130;-76
2023/12/13 06:07:08;;;;;;;3.53;0.98;;;;;;;7.10;100.00;97252.31;5041827;28;20021;-78
2023/12/13 06:09:34;;;;;;;2.35;1.00;;;;;;;7.08;100.00;97240.97;5060801;28;20025;-75
2023/12/13 06:11:59;;;;;;;3.38;0.93;;;;;;;7.14;100.00;97245.44;5043401;28;20314;-75
2023/12/13 06:14:24;;;;;;;4.25;1.08;;;;;;;7.08;100.00;97242.84;5042054;28;20020;-78
2023/12/13 06:16:50;;;;;;;4.90;1.15;;;;;;;6.95;100.00;97235.69;5040798;28;20027;-75
2023/12/13 06:19:15;;;;;;;5.90;1.00;;;;;;;6.98;100.00;97246.00;5042142;28;20040;-79
2023/12/13 06:21:40;;;;;;;3.67;1.05;;;;;;;6.95;100.00;97228.44;5058357;28;20088;-78
2023/12/13 06:24:06;;;;;;;2.85;1.20;;;;;;;7.00;100.00;97230.47;5038430;28;20191;-80
2023/12/13 06:26:31;;;;;;;4.72;1.30;;;;;;;7.15;100.00;97254.34;5063726;28;20025;-71
2023/12/13 06:28:57;;;;;;;5.15;1.35;;;;;;;7.13;100.00;97251.88;5052264;28;20045;-72
2023/12/13 06:31:23;;;;;;;3.80;1.27;;;;;;;7.12;100.00;97255.59;5052284;28;20028;-73
2023/12/13 06:33:48;;;;;;;3.63;0.98;;;;;;;7.15;100.00;97262.41;5060769;28;20031;-72
2023/12/13 06:36:13;;;;;;;4.68;1.20;;;;;;;7.08;100.00;97253.59;5062056;28;20025;-73
2023/12/13 06:38:39;;;;;;;4.43;1.42;;;;;;;7.06;100.00;97248.41;5038691;28;20025;-73
2023/12/13 06:41:04;;;;;;;5.28;1.58;;;;;;;7.09;100.00;97245.28;5060679;28;20080;-72
2023/12/13 06:43:29;;;;;;;5.63;1.65;;;;;;;6.99;100.00;97228.81;5043506;28;20017;-75
2023/12/13 06:45:55;;;;;;;8.00;2.72;;;;;;;6.95;100.00;97243.75;5042419;28;20058;-72
2023/12/13 06:48:20;;;;;;;6.68;2.38;;;;;;;6.93;100.00;97237.78;5058662;28;20092;-73
2023/12/13 06:50:45;;;;;;;6.25;2.63;;;;;;;6.87;100.00;97230.59;5059758;28;20074;-72
2023/12/13 06:53:11;;;;;;;7.25;2.30;;;;;;;6.95;100.00;97239.19;5043795;28;20123;-72
2023/12/13 06:55:36;;;;;;;10.43;2.63;;;;;;;6.93;100.00;97229.69;5058581;28;20025;-72
2023/12/13 06:58:01;;;;;;;3.70;1.67;;;;;;;7.08;100.00;97243.66;5058604;28;20249;-74
2023/12/13 07:00:27;;;;;;;5.45;1.80;;;;;;;6.97;100.00;97231.75;5057225;28;20044;-72
2023/12/13 07:02:53;;;;;;;9.32;2.20;;;;;;;7.00;100.00;97231.31;5054827;28;20249;-72
2023/12/13 07:05:19;;;;;;;6.43;2.10;;;;;;;6.97;100.00;97237.13;5054979;28;20055;-71
2023/12/13 07:07:46;;;;;;;2.47;1.10;;;;;;;6.94;100.00;97224.13;5060266;28;20030;-80
2023/12/13 07:10:12;;;;;;;4.88;1.35;;;;;;;6.94;100.00;97231.34;5057738;28;20032;-79
2023/12/13 07:12:37;;;;;;;4.07;1.45;;;;;;;6.95;100.00;97231.13;5040477;28;20025;-73
2023/12/13 07:15:03;;;;;;;3.35;1.27;;;;;;;6.91;100.00;97218.34;5043008;28;20021;-73
2023/12/13 07:17:29;;;;;;;2.97;1.58;;;;;;;6.95;100.00;97219.56;5062207;28;20033;-73
2023/12/13 07:19:54;;;;;;;2.22;1.23;;;;;;;6.95;100.00;97223.06;5059178;28;20092;-76
2023/12/13 07:22:19;;;;;;;4.28;1.10;;;;;;;7.00;100.00;97219.72;5054198;28;20028;-80
2023/12/13 07:24:46;;;;;;;7.13;1.55;;;;;;;6.93;100.00;97211.69;5060265;28;20245;-73
2023/12/13 07:27:11;;;;;;;3.72;1.40;;;;;;;6.98;100.00;97217.25;5050062;28;20314;-72
2023/12/13 07:29:40;;;;;;;2.78;1.38;;;;;;;7.12;100.00;97236.78;5053098;28;20030;-71
2023/12/13 07:32:05;;;;;;;3.13;1.33;;;;;;;7.12;100.00;97228.72;5061079;28;20039;-71
2023/12/13 07:34:31;;;;;;;2.97;1.52;;;;;;;7.15;100.00;97222.91;5059537;28;20093;-72
2023/12/13 07:36:56;;;;;;;2.20;1.20;;;;;;;7.21;100.00;97211.25;5058333;28;20028;-73
2023/12/13 07:39:23;;;;;;;2.50;1.38;;;;;;;7.36;100.00;97218.16;5060184;28;20029;-72
2023/12/13 07:41:48;;;;;;;2.47;1.50;;;;;;;7.33;100.00;97205.16;5065429;28;20025;-73
2023/12/13 07:44:13;;;;;;;6.82;2.00;;;;;;;7.36;100.00;97212.75;5062845;28;20075;-72
2023/12/13 07:46:39;;;;;;;6.75;2.10;;;;;;;7.35;100.00;97211.94;5063692;28;20024;-72
2023/12/13 07:49:04;;;;;;;5.38;1.92;;;;;;;7.22;100.00;97204.81;5044493;28;20028;-73
2023/12/13 07:51:31;;;;;;;5.13;1.27;;;;;;;7.33;100.00;97218.59;5063018;28;20025;-72
2023/12/13 07:53:58;;;;;;;4.97;1.35;;;;;;;7.43;100.00;97218.91;5063526;28;20029;-73
2023/12/13 07:56:24;;;;;;;3.45;1.30;;;;;;;7.29;100.00;97195.88;5063385;28;20310;-72
2023/12/13 07:58:49;;;;;;;3.35;1.42;;;;;;;7.44;100.00;97182.88;5062584;28;20041;-73
2023/12/13 08:01:15;;;;;;;5.47;1.13;;;;;;;7.50;100.00;97191.94;5045146;28;20055;-78
2023/12/13 08:03:40;;;;;;;3.80;1.40;;;;;;;7.32;100.00;97173.91;5040250;28;20021;-73
2023/12/13 08:06:13;;;;;;;2.88;1.33;;;;;;;7.55;100.00;97201.00;5056750;28;20036;-75
2023/12/13 08:08:40;;;;;;;10.25;2.20;;;;;;;7.53;100.00;97199.56;5058206;28;20262;-73
2023/12/13 08:11:06;;;;;;;8.73;2.20;;;;;;;7.62;100.00;97211.69;5033370;28;20021;-73
2023/12/13 08:13:32;;;;;;;4.03;1.45;;;;;;;7.61;100.00;97200.09;5062999;28;20091;-73
2023/12/13 08:15:57;;;;;;;4.05;1.65;;;;;;;7.68;100.00;97217.00;5065333;28;20033;-72
2023/12/13 08:18:22;;;;;;;5.07;1.90;;;;;;;7.65;100.00;97224.69;5057686;28;20226;-74
2023/12/13 08:20:48;;;;;;;3.30;1.50;;;;;;;7.65;100.00;97224.69;5050682;28;20025;-75
2023/12/13 08:23:13;;;;;;;8.10;1.63;;;;;;;7.64;100.00;97212.28;5051282;28;20230;-72
2023/12/13 08:25:39;;;;;;;4.90;1.48;;;;;;;7.68;100.00;97230.47;5045786;28;20028;-71
2023/12/13 08:28:04;;;;;;;5.85;1.70;;;;;;;7.66;100.00;97212.88;5058972;28;20033;-71
2023/12/13 08:30:29;;;;;;;5.93;1.25;;;;;;;7.74;100.00;97214.47;5070594;28;20036;-72
2023/12/13 08:32:54;;;;;;;7.07;1.50;;;;;;;7.79;100.00;97211.91;5052335;28;20030;-77
2023/12/13 08:35:20;;;;;;;6.63;1.40;;;;;;;7.83;100.00;97222.03;5046493;28;20389;-73
2023/12/13 08:37:45;;;;;;;8.82;2.53;;;;;;;7.69;100.00;97193.59;5062095;28;20095;-76
2023/12/13 08:40:11;;;;;;;5.13;1.35;;;;;;;7.71;100.00;97204.16;5046690;28;20021;-76
2023/12/13 08:42:37;;;;;;;4.68;1.60;;;;;;;7.78;100.00;97221.88;5063008;28;20045;-73
2023/12/13 08:45:03;;;;;;;3.97;1.50;;;;;;;7.84;100.00;97214.75;5041527;28;20025;-75
2023/12/13 08:47:29;;;;;;;3.33;1.70;;;;;;;7.93;100.00;97226.84;5055167;28;20063;-72
2023/12/13 08:49:54;;;;;;;4.82;1.52;;;;;;;7.89;100.00;97228.38;5063239;28;20021;-79
2023/12/13 08:52:20;;;;;;;5.13;1.65;;;;;;;7.92;100.00;97225.22;5047026;28;20028;-73
2023/12/13 08:54:46;;;;;;;3.35;1.98;;;;;;;7.92;100.00;97208.25;5064963;28;20093;-74
2023/12/13 08:57:11;;;;;;;8.45;1.50;;;;;;;7.80;100.00;97195.53;5059643;28;20021;-86
2023/12/13 08:59:36;;;;;;;3.25;1.70;;;;;;;7.92;100.00;97205.56;5042205;28;20407;-76
2023/12/13 09:02:02;;;;;;;3.33;1.88;;;;;;;7.99;100.00;97203.59;5065853;28;20094;-74
2023/12/13 09:04:27;;;;;;;4.78;1.60;;;;;;;7.81;100.00;97215.22;5046430;28;20019;-73
2023/12/13 09:06:53;;;;;;;3.88;1.55;;;;;;;7.88;100.00;97211.38;5064977;28;20025;-74
2023/12/13 09:09:18;;;;;;;6.30;1.65;;;;;;;7.81;100.00;97216.03;5041958;28;20223;-74
2023/12/13 09:11:44;;;;;;;4.25;1.58;;;;;;;7.75;100.00;97199.94;5036300;28;20098;-75
2023/12/13 09:14:10;;;;;;;5.38;1.75;;;;;;;7.99;100.00;97230.53;5047155;28;20021;-79
2023/12/13 09:16:35;;;;;;;6.40;2.05;;;;;;;8.16;100.00;97230.75;5042211;28;20053;-79
2023/12/13 09:19:00;;;;;;;5.40;2.22;;;;;;;8.29;100.00;97223.31;5031065;28;20016;-75
2023/12/13 09:21:26;;;;;;;4.88;2.15;;;;;;;8.56;100.00;97236.44;5033173;28;20025;-74
2023/12/13 09:23:51;;;;;;;3.63;1.73;;;;;;;8.68;100.00;97247.28;5063702;28;20093;-70
2023/12/13 09:26:17;;;;;;;5.68;1.95;;;;;;;8.67;100.00;97235.69;5051935;28;20029;-72
2023/12/13 09:28:42;;;;;;;6.88;2.03;;;;;;;8.80;100.00;97236.50;5059098;28;20100;-74
2023/12/13 09:31:07;;;;;;;3.08;1.63;;;;;;;8.86;100.00;97238.31;5041855;28;20096;-72
2023/12/13 09:33:33;;;;;;;3.35;1.63;;;;;;;8.96;100.00;97243.94;5060336;28;20096;-74
2023/12/13 09:35:58;;;;;;;4.40;1.77;;;;;;;8.94;100.00;97248.75;5047072;28;20024;-79
2023/12/13 09:38:24;;;;;;;4.85;1.77;;;;;;;9.07;100.00;97250.44;5062541;28;20091;-80
2023/12/13 09:40:49;;;;;;;4.68;1.60;;;;;;;9.28;100.00;97255.28;5045710;28;20063;-79
2023/12/13 09:43:14;;;;;;;2.50;1.50;;;;;;;9.28;100.00;97239.09;5046003;28;20041;-72
2023/12/13 09:45:41;;;;;;;3.97;1.48;;;;;;;9.28;100.00;97244.47;5045117;28;20027;-71
2023/12/13 09:48:08;;;;;;;3.97;1.48;;;;;;;9.28;100.00;97236.38;5044597;28;20368;-78
2023/12/13 09:50:35;;;;;;;3.90;1.80;;;;;;;9.44;100.00;97246.47;5051906;28;20282;-78
2023/12/13 09:53:02;;;;;;;3.70;1.67;;;;;;;9.34;100.00;97230.03;5051137;28;20021;-78
2023/12/13 09:55:29;;;;;;;8.27;2.15;;;;;;;9.36;100.00;97246.81;5046495;28;20043;-79
2023/12/13 09:57:54;;;;;;;4.65;2.13;;;;;;;9.30;100.00;97230.72;5063354;28;20313;-79
2023/12/13 10:00:20;;;;;;;5.40;2.25;;;;;;;9.50;100.00;97236.63;5061822;28;20055;-80
2023/12/13 10:02:48;;;;;;;7.00;1.88;;;;;;;10.11;100.00;97226.31;5047785;28;20349;-80
2023/12/13 10:05:17;;;;;;;5.35;1.70;;;;;;;10.41;100.00;97201.00;5061299;28;20267;-83
2023/12/13 10:07:42;;;;;;;3.33;1.70;;;;;;;10.67;100.00;97208.50;5073523;22;20032;-76
2023/12/13 10:10:09;;;;;;;4.80;2.17;;;;;;;10.69;100.00;97203.69;5079263;28;20020;-75
2023/12/13 10:12:35;;;;;;;7.78;2.97;;;;;;;10.65;100.00;97212.50;5064579;28;20100;-75
2023/12/13 10:15:11;;;;;;;2.75;1.92;;;;;;;10.44;100.00;97208.63;5061755;28;20047;-75
2023/12/13 10:17:36;;;;;;;6.95;2.08;;;;;;;10.27;100.00;97206.69;5061399;28;20317;-75
2023/12/13 10:20:02;;;;;;;4.07;1.80;;;;;;;10.24;100.00;97203.59;5055774;28;20071;-76
2023/12/13 10:22:28;;;;;;;3.08;1.60;;;;;;;10.19;100.00;97198.94;5074099;28;20040;-75
2023/12/13 10:24:56;;;;;;;4.68;1.70;;;;;;;10.05;100.00;97202.94;5076262;28;20191;-75
2023/12/13 10:27:21;;;;;;;5.68;2.20;;;;;;;10.07;100.00;97195.44;5067041;28;20113;-75
2023/12/13 10:29:47;;;;;;;6.93;2.10;;;;;;;9.97;100.00;97209.56;5080316;28;20020;-76
2023/12/13 10:32:12;;;;;;;6.25;2.10;;;;;;;9.83;100.00;97200.91;5058235;28;20032;-74
2023/12/13 10:34:37;;;;;;;2.20;1.50;;;;;;;9.92;100.00;97192.41;5067322;28;20029;-77
2023/12/13 10:37:04;;;;;;;3.03;1.30;;;;;;;9.79;100.00;97194.31;5081533;28;20024;-74
2023/12/13 10:39:32;;;;;;;5.82;1.90;;;;;;;9.80;100.00;97190.56;5072541;28;20017;-75
2023/12/13 10:41:59;;;;;;;6.07;2.28;;;;;;;9.94;100.00;97188.41;5055214;28;20020;-75
2023/12/13 10:44:30;;;;;;;6.18;2.28;;;;;;;9.98;100.00;97191.44;5081214;28;20016;-76
2023/12/13 10:46:59;;;;;;;5.28;1.33;;;;;;;9.81;100.00;97188.69;5077123;28;20028;-73
2023/12/13 10:49:24;;;;;;;5.72;1.45;;;;;;;10.00;100.00;97187.44;5059129;28;20096;-75
2023/12/13 10:51:51;;;;;;;8.93;2.10;;;;;;;10.10;100.00;97184.13;5072745;28;20035;-76
2023/12/13 10:54:17;;;;;;;4.20;1.60;;;;;;;10.24;100.00;97196.31;5070869;28;20033;-75
2023/12/13 10:56:43;;;;;;;6.25;1.63;;;;;;;10.47;100.00;97191.91;5081216;28;20336;-75
2023/12/13 10:59:10;;;;;;;6.68;2.20;;;;;;;10.57;100.00;97197.50;5060995;28;20024;-75
2023/12/13 11:01:39;;;;;;;5.90;2.60;;;;;;;10.81;100.00;97176.53;5073066;28;20142;-75
2023/12/13 11:04:12;;;;;;;4.03;2.33;;;;;;;11.12;100.00;97177.06;5069301;28;20023;-75
2023/12/13 11:06:40;;;;;;;4.47;2.05;;;;;;;11.42;100.00;97179.38;5069841;28;20079;-75
2023/12/13 11:09:21;;;;;;;3.28;1.38;;;;;;;11.84;100.00;97168.88;5073479;28;20024;-75
2023/12/13 11:11:46;;;;;;;7.53;1.80;;;;;;;12.25;100.00;97171.28;5081388;28;20029;-75
2023/12/13 11:14:17;;;;;;;2.22;1.30;;;;;;;14.22;100.00;97139.56;5058885;28;20060;-75
2023/12/13 11:16:46;;;;;;;3.22;1.40;;;;;;;14.58;100.00;97145.13;5081404;28;20021;-75
2023/12/13 11:19:13;;;;;;;;;;;;;;;14.01;100.00;97148.72;5077312;28;20036;-75
2023/12/13 11:21:40;;;;;;;4.97;1.90;;;;;;;13.47;100.00;97159.91;5077458;28;19927;-75
2023/12/13 11:24:10;;;;;;;5.03;1.40;;;;;;;12.71;100.00;97156.28;5074773;28;20054;-75